sensor_id;sensor_type;location;lat;lon;timestamp;temperature;humidity
18177;DHT22;9213;50.858;3.964;2022-12-20T00:01:42;13.90;57.30
18177;DHT22;9213;50.858;3.964;2022-12-20T00:04:10;13.90;57.50
18177;DHT22;9213;50.858;3.964;2022-12-20T00:06:37;13.90;57.60
18177;DHT22;9213;50.858;3.964;2022-12-20T00:09:07;13.80;57.60
18177;DHT22;9213;50.858;3.964;2022-12-20T00:11:37;13.80;57.80
18177;DHT22;9213;50.858;3.964;2022-12-20T00:14:04;13.80;57.90
18177;DHT22;9213;50.858;3.964;2022-12-20T00:16:31;13.80;58.10
18177;DHT22;9213;50.858;3.964;2022-12-20T00:19:01;13.80;58.20
18177;DHT22;9213;50.858;3.964;2022-12-20T00:21:29;13.80;58.30
18177;DHT22;9213;50.858;3.964;2022-12-20T00:23:56;13.70;58.50
18177;DHT22;9213;50.858;3.964;2022-12-20T00:26:26;13.70;58.70
18177;DHT22;9213;50.858;3.964;2022-12-20T00:28:53;13.60;58.90
18177;DHT22;9213;50.858;3.964;2022-12-20T00:31:23;13.60;59.10
18177;DHT22;9213;50.858;3.964;2022-12-20T00:33:51;13.60;59.20
18177;DHT22;9213;50.858;3.964;2022-12-20T00:36:21;13.50;59.30
18177;DHT22;9213;50.858;3.964;2022-12-20T00:38:50;13.60;59.40
18177;DHT22;9213;50.858;3.964;2022-12-20T00:41:18;13.50;59.50
18177;DHT22;9213;50.858;3.964;2022-12-20T00:43:46;13.50;59.60
18177;DHT22;9213;50.858;3.964;2022-12-20T00:46:14;13.50;59.60
18177;DHT22;9213;50.858;3.964;2022-12-20T00:48:42;13.50;59.70
18177;DHT22;9213;50.858;3.964;2022-12-20T00:51:11;13.40;59.60
18177;DHT22;9213;50.858;3.964;2022-12-20T00:53:39;13.40;59.80
18177;DHT22;9213;50.858;3.964;2022-12-20T00:56:07;13.40;59.80
18177;DHT22;9213;50.858;3.964;2022-12-20T00:58:36;13.40;59.80
18177;DHT22;9213;50.858;3.964;2022-12-20T01:01:05;13.40;59.90
18177;DHT22;9213;50.858;3.964;2022-12-20T01:03:32;13.40;60.00
18177;DHT22;9213;50.858;3.964;2022-12-20T01:06:01;13.40;60.00
18177;DHT22;9213;50.858;3.964;2022-12-20T01:08:30;13.40;60.10
18177;DHT22;9213;50.858;3.964;2022-12-20T01:10:59;13.40;60.00
18177;DHT22;9213;50.858;3.964;2022-12-20T01:13:27;13.30;60.00
18177;DHT22;9213;50.858;3.964;2022-12-20T01:15:53;13.30;60.00
18177;DHT22;9213;50.858;3.964;2022-12-20T01:18:20;13.30;60.10
18177;DHT22;9213;50.858;3.964;2022-12-20T01:20:48;13.30;60.10
18177;DHT22;9213;50.858;3.964;2022-12-20T01:23:15;13.20;60.00
18177;DHT22;9213;50.858;3.964;2022-12-20T01:25:41;13.10;60.20
18177;DHT22;9213;50.858;3.964;2022-12-20T01:28:10;13.20;60.30
18177;DHT22;9213;50.858;3.964;2022-12-20T01:30:39;13.20;60.50
18177;DHT22;9213;50.858;3.964;2022-12-20T01:33:06;13.10;60.70
18177;DHT22;9213;50.858;3.964;2022-12-20T01:35:33;13.20;60.70
18177;DHT22;9213;50.858;3.964;2022-12-20T01:38:00;13.10;60.70
18177;DHT22;9213;50.858;3.964;2022-12-20T01:40:27;13.20;60.70
18177;DHT22;9213;50.858;3.964;2022-12-20T01:42:54;13.20;61.70
18177;DHT22;9213;50.858;3.964;2022-12-20T01:45:27;13.20;60.90
18177;DHT22;9213;50.858;3.964;2022-12-20T01:47:55;13.20;61.00
18177;DHT22;9213;50.858;3.964;2022-12-20T01:50:22;13.20;60.90
18177;DHT22;9213;50.858;3.964;2022-12-20T01:52:51;13.20;61.00
18177;DHT22;9213;50.858;3.964;2022-12-20T01:55:22;13.20;61.00
18177;DHT22;9213;50.858;3.964;2022-12-20T01:57:51;13.30;61.30
18177;DHT22;9213;50.858;3.964;2022-12-20T02:00:20;13.20;61.10
18177;DHT22;9213;50.858;3.964;2022-12-20T02:02:49;13.30;61.20
18177;DHT22;9213;50.858;3.964;2022-12-20T02:05:17;13.30;61.30
18177;DHT22;9213;50.858;3.964;2022-12-20T02:07:47;13.30;61.30
18177;DHT22;9213;50.858;3.964;2022-12-20T02:10:16;13.30;61.30
18177;DHT22;9213;50.858;3.964;2022-12-20T02:12:45;13.30;61.20
18177;DHT22;9213;50.858;3.964;2022-12-20T02:15:23;13.30;61.20
18177;DHT22;9213;50.858;3.964;2022-12-20T02:18:06;13.40;61.30
18177;DHT22;9213;50.858;3.964;2022-12-20T02:27:06;13.40;61.20
18177;DHT22;9213;50.858;3.964;2022-12-20T02:29:56;13.40;61.20
18177;DHT22;9213;50.858;3.964;2022-12-20T02:32:29;13.40;61.30
18177;DHT22;9213;50.858;3.964;2022-12-20T02:34:56;13.40;61.40
18177;DHT22;9213;50.858;3.964;2022-12-20T02:37:23;13.40;61.40
18177;DHT22;9213;50.858;3.964;2022-12-20T02:39:50;13.40;61.40
18177;DHT22;9213;50.858;3.964;2022-12-20T02:42:21;13.40;61.30
18177;DHT22;9213;50.858;3.964;2022-12-20T02:44:53;13.50;61.50
18177;DHT22;9213;50.858;3.964;2022-12-20T02:47:47;13.50;61.40
18177;DHT22;9213;50.858;3.964;2022-12-20T02:50:17;13.50;61.30
18177;DHT22;9213;50.858;3.964;2022-12-20T02:52:47;13.60;61.20
18177;DHT22;9213;50.858;3.964;2022-12-20T02:55:15;13.50;61.20
18177;DHT22;9213;50.858;3.964;2022-12-20T02:57:45;13.60;61.10
18177;DHT22;9213;50.858;3.964;2022-12-20T03:00:16;13.60;61.10
18177;DHT22;9213;50.858;3.964;2022-12-20T03:02:46;13.60;61.00
18177;DHT22;9213;50.858;3.964;2022-12-20T03:05:34;13.70;61.00
18177;DHT22;9213;50.858;3.964;2022-12-20T03:08:02;13.70;60.90
18177;DHT22;9213;50.858;3.964;2022-12-20T03:10:29;13.70;60.80
18177;DHT22;9213;50.858;3.964;2022-12-20T03:12:56;13.70;60.80
18177;DHT22;9213;50.858;3.964;2022-12-20T03:15:23;13.70;60.70
18177;DHT22;9213;50.858;3.964;2022-12-20T03:17:51;13.70;60.70
18177;DHT22;9213;50.858;3.964;2022-12-20T03:20:18;13.80;60.60
18177;DHT22;9213;50.858;3.964;2022-12-20T03:22:45;13.80;60.50
18177;DHT22;9213;50.858;3.964;2022-12-20T03:25:11;13.80;60.40
18177;DHT22;9213;50.858;3.964;2022-12-20T03:27:38;13.80;60.30
18177;DHT22;9213;50.858;3.964;2022-12-20T03:30:06;13.90;60.40
18177;DHT22;9213;50.858;3.964;2022-12-20T03:32:33;13.90;60.30
18177;DHT22;9213;50.858;3.964;2022-12-20T03:35:02;13.90;60.30
18177;DHT22;9213;50.858;3.964;2022-12-20T03:37:29;13.90;60.30
18177;DHT22;9213;50.858;3.964;2022-12-20T03:39:55;13.90;60.40
18177;DHT22;9213;50.858;3.964;2022-12-20T03:42:22;13.90;60.50
18177;DHT22;9213;50.858;3.964;2022-12-20T03:44:49;13.90;60.60
18177;DHT22;9213;50.858;3.964;2022-12-20T03:47:16;13.90;60.60
18177;DHT22;9213;50.858;3.964;2022-12-20T03:49:43;13.90;60.80
18177;DHT22;9213;50.858;3.964;2022-12-20T03:52:12;13.90;60.80
18177;DHT22;9213;50.858;3.964;2022-12-20T03:54:39;13.90;60.90
18177;DHT22;9213;50.858;3.964;2022-12-20T03:57:06;13.90;60.80
18177;DHT22;9213;50.858;3.964;2022-12-20T03:59:33;13.90;60.80
18177;DHT22;9213;50.858;3.964;2022-12-20T04:02:00;13.90;60.70
18177;DHT22;9213;50.858;3.964;2022-12-20T04:04:28;13.90;60.60
18177;DHT22;9213;50.858;3.964;2022-12-20T04:06:55;13.90;60.60
18177;DHT22;9213;50.858;3.964;2022-12-20T04:09:23;13.90;60.60
18177;DHT22;9213;50.858;3.964;2022-12-20T04:11:50;13.90;60.70
18177;DHT22;9213;50.858;3.964;2022-12-20T04:14:17;13.90;60.70
18177;DHT22;9213;50.858;3.964;2022-12-20T04:16:43;13.90;60.80
18177;DHT22;9213;50.858;3.964;2022-12-20T04:19:10;13.90;60.80
18177;DHT22;9213;50.858;3.964;2022-12-20T04:21:37;13.90;60.70
18177;DHT22;9213;50.858;3.964;2022-12-20T04:24:05;13.90;60.70
18177;DHT22;9213;50.858;3.964;2022-12-20T04:26:33;13.90;60.60
18177;DHT22;9213;50.858;3.964;2022-12-20T04:29:00;14.00;60.60
18177;DHT22;9213;50.858;3.964;2022-12-20T04:31:27;14.00;60.60
18177;DHT22;9213;50.858;3.964;2022-12-20T04:33:54;14.00;60.50
18177;DHT22;9213;50.858;3.964;2022-12-20T04:36:21;14.00;60.50
18177;DHT22;9213;50.858;3.964;2022-12-20T04:38:48;14.00;60.30
18177;DHT22;9213;50.858;3.964;2022-12-20T04:41:15;14.00;60.10
18177;DHT22;9213;50.858;3.964;2022-12-20T04:43:49;14.00;59.90
18177;DHT22;9213;50.858;3.964;2022-12-20T04:46:17;14.00;59.80
18177;DHT22;9213;50.858;3.964;2022-12-20T04:48:44;13.90;59.70
18177;DHT22;9213;50.858;3.964;2022-12-20T04:51:11;13.90;59.80
18177;DHT22;9213;50.858;3.964;2022-12-20T04:53:38;13.90;59.80
18177;DHT22;9213;50.858;3.964;2022-12-20T04:56:15;13.80;59.80
18177;DHT22;9213;50.858;3.964;2022-12-20T04:58:42;13.80;59.80
18177;DHT22;9213;50.858;3.964;2022-12-20T05:01:10;13.70;59.80
18177;DHT22;9213;50.858;3.964;2022-12-20T05:03:38;13.70;59.90
18177;DHT22;9213;50.858;3.964;2022-12-20T05:06:06;13.70;60.00
18177;DHT22;9213;50.858;3.964;2022-12-20T05:08:33;13.70;60.00
18177;DHT22;9213;50.858;3.964;2022-12-20T05:11:00;13.70;60.00
18177;DHT22;9213;50.858;3.964;2022-12-20T05:13:27;13.60;60.00
18177;DHT22;9213;50.858;3.964;2022-12-20T05:15:55;13.60;60.00
18177;DHT22;9213;50.858;3.964;2022-12-20T05:18:25;13.60;60.00
18177;DHT22;9213;50.858;3.964;2022-12-20T05:20:54;13.60;60.00
18177;DHT22;9213;50.858;3.964;2022-12-20T05:23:36;13.60;60.00
18177;DHT22;9213;50.858;3.964;2022-12-20T05:26:20;13.60;59.80
18177;DHT22;9213;50.858;3.964;2022-12-20T05:28:49;13.60;59.80
18177;DHT22;9213;50.858;3.964;2022-12-20T05:31:16;13.60;59.90
18177;DHT22;9213;50.858;3.964;2022-12-20T05:33:44;13.60;60.00
18177;DHT22;9213;50.858;3.964;2022-12-20T05:36:12;13.60;60.00
18177;DHT22;9213;50.858;3.964;2022-12-20T05:38:38;13.60;59.90
18177;DHT22;9213;50.858;3.964;2022-12-20T05:41:05;13.60;59.80
18177;DHT22;9213;50.858;3.964;2022-12-20T05:43:33;13.60;60.50
18177;DHT22;9213;50.858;3.964;2022-12-20T05:46:00;13.60;59.80
18177;DHT22;9213;50.858;3.964;2022-12-20T05:48:27;13.60;59.80
18177;DHT22;9213;50.858;3.964;2022-12-20T05:50:55;13.60;59.70
18177;DHT22;9213;50.858;3.964;2022-12-20T05:53:22;13.60;59.70
18177;DHT22;9213;50.858;3.964;2022-12-20T05:55:52;13.70;59.80
18177;DHT22;9213;50.858;3.964;2022-12-20T05:58:19;13.70;59.70
18177;DHT22;9213;50.858;3.964;2022-12-20T06:00:47;13.70;59.70
18177;DHT22;9213;50.858;3.964;2022-12-20T06:03:14;13.70;59.60
18177;DHT22;9213;50.858;3.964;2022-12-20T06:05:41;13.80;59.50
18177;DHT22;9213;50.858;3.964;2022-12-20T06:08:11;13.80;59.30
18177;DHT22;9213;50.858;3.964;2022-12-20T06:10:38;13.80;59.30
18177;DHT22;9213;50.858;3.964;2022-12-20T06:13:06;13.90;59.30
18177;DHT22;9213;50.858;3.964;2022-12-20T06:15:33;13.90;59.20
18177;DHT22;9213;50.858;3.964;2022-12-20T06:18:00;13.90;59.10
18177;DHT22;9213;50.858;3.964;2022-12-20T06:20:27;14.00;59.00
18177;DHT22;9213;50.858;3.964;2022-12-20T06:22:54;13.90;58.90
18177;DHT22;9213;50.858;3.964;2022-12-20T06:25:22;14.00;58.90
18177;DHT22;9213;50.858;3.964;2022-12-20T06:27:49;14.00;58.80
18177;DHT22;9213;50.858;3.964;2022-12-20T06:30:16;14.00;58.70
18177;DHT22;9213;50.858;3.964;2022-12-20T06:32:43;14.00;58.70
18177;DHT22;9213;50.858;3.964;2022-12-20T06:35:10;14.00;58.60
18177;DHT22;9213;50.858;3.964;2022-12-20T06:37:37;14.10;58.60
18177;DHT22;9213;50.858;3.964;2022-12-20T06:40:06;14.10;58.50
18177;DHT22;9213;50.858;3.964;2022-12-20T06:42:35;14.10;58.40
18177;DHT22;9213;50.858;3.964;2022-12-20T06:45:02;14.10;58.40
18177;DHT22;9213;50.858;3.964;2022-12-20T06:47:29;14.10;58.50
18177;DHT22;9213;50.858;3.964;2022-12-20T06:49:56;14.10;58.60
18177;DHT22;9213;50.858;3.964;2022-12-20T06:52:23;14.10;58.70
18177;DHT22;9213;50.858;3.964;2022-12-20T06:54:50;14.10;58.80
18177;DHT22;9213;50.858;3.964;2022-12-20T06:57:17;14.10;59.00
18177;DHT22;9213;50.858;3.964;2022-12-20T06:59:45;14.00;59.10
18177;DHT22;9213;50.858;3.964;2022-12-20T07:02:13;14.10;59.30
18177;DHT22;9213;50.858;3.964;2022-12-20T07:04:40;14.00;59.30
18177;DHT22;9213;50.858;3.964;2022-12-20T07:07:06;14.00;59.50
18177;DHT22;9213;50.858;3.964;2022-12-20T07:09:33;13.90;59.60
18177;DHT22;9213;50.858;3.964;2022-12-20T07:12:02;14.00;59.80
18177;DHT22;9213;50.858;3.964;2022-12-20T07:14:29;13.90;59.90
18177;DHT22;9213;50.858;3.964;2022-12-20T07:16:58;13.90;60.10
18177;DHT22;9213;50.858;3.964;2022-12-20T07:19:25;13.90;60.40
18177;DHT22;9213;50.858;3.964;2022-12-20T07:21:52;13.80;60.50
18177;DHT22;9213;50.858;3.964;2022-12-20T07:24:19;13.80;60.70
18177;DHT22;9213;50.858;3.964;2022-12-20T07:26:46;13.80;60.90
18177;DHT22;9213;50.858;3.964;2022-12-20T07:29:13;13.80;61.30
18177;DHT22;9213;50.858;3.964;2022-12-20T07:31:40;13.70;61.50
18177;DHT22;9213;50.858;3.964;2022-12-20T07:34:08;13.70;61.60
18177;DHT22;9213;50.858;3.964;2022-12-20T07:36:35;13.70;61.80
18177;DHT22;9213;50.858;3.964;2022-12-20T07:39:02;13.70;62.00
18177;DHT22;9213;50.858;3.964;2022-12-20T07:41:29;13.70;62.20
18177;DHT22;9213;50.858;3.964;2022-12-20T07:43:56;13.70;62.40
18177;DHT22;9213;50.858;3.964;2022-12-20T07:46:23;13.70;62.50
18177;DHT22;9213;50.858;3.964;2022-12-20T07:48:50;13.70;62.80
18177;DHT22;9213;50.858;3.964;2022-12-20T07:51:22;13.70;62.80
18177;DHT22;9213;50.858;3.964;2022-12-20T07:53:55;13.70;63.10
18177;DHT22;9213;50.858;3.964;2022-12-20T07:56:25;13.70;63.20
18177;DHT22;9213;50.858;3.964;2022-12-20T07:58:54;13.70;63.20
18177;DHT22;9213;50.858;3.964;2022-12-20T08:01:23;13.70;63.40
18177;DHT22;9213;50.858;3.964;2022-12-20T08:03:53;13.70;63.30
18177;DHT22;9213;50.858;3.964;2022-12-20T08:06:23;13.80;63.50
18177;DHT22;9213;50.858;3.964;2022-12-20T08:08:53;13.80;63.60
18177;DHT22;9213;50.858;3.964;2022-12-20T08:11:23;13.80;63.60
18177;DHT22;9213;50.858;3.964;2022-12-20T08:13:50;13.80;63.60
18177;DHT22;9213;50.858;3.964;2022-12-20T08:16:18;13.80;63.70
18177;DHT22;9213;50.858;3.964;2022-12-20T08:18:44;13.80;63.70
18177;DHT22;9213;50.858;3.964;2022-12-20T08:21:11;13.80;63.70
18177;DHT22;9213;50.858;3.964;2022-12-20T08:23:40;13.80;63.90
18177;DHT22;9213;50.858;3.964;2022-12-20T08:26:07;13.90;64.00
18177;DHT22;9213;50.858;3.964;2022-12-20T08:28:34;13.90;63.90
18177;DHT22;9213;50.858;3.964;2022-12-20T08:31:02;13.90;63.80
18177;DHT22;9213;50.858;3.964;2022-12-20T08:33:29;13.90;63.80
18177;DHT22;9213;50.858;3.964;2022-12-20T08:35:56;13.90;63.80
18177;DHT22;9213;50.858;3.964;2022-12-20T08:38:25;13.90;64.60
18177;DHT22;9213;50.858;3.964;2022-12-20T08:40:53;14.00;63.80
18177;DHT22;9213;50.858;3.964;2022-12-20T08:43:20;14.00;63.80
18177;DHT22;9213;50.858;3.964;2022-12-20T08:45:51;14.00;63.80
18177;DHT22;9213;50.858;3.964;2022-12-20T08:48:19;14.00;63.90
18177;DHT22;9213;50.858;3.964;2022-12-20T08:50:46;14.00;63.70
18177;DHT22;9213;50.858;3.964;2022-12-20T08:53:13;14.00;63.80
18177;DHT22;9213;50.858;3.964;2022-12-20T08:55:40;14.00;63.80
18177;DHT22;9213;50.858;3.964;2022-12-20T08:58:08;14.00;63.70
18177;DHT22;9213;50.858;3.964;2022-12-20T09:00:35;14.00;63.80
18177;DHT22;9213;50.858;3.964;2022-12-20T09:03:02;14.00;63.90
18177;DHT22;9213;50.858;3.964;2022-12-20T09:05:29;14.00;64.00
18177;DHT22;9213;50.858;3.964;2022-12-20T09:07:56;14.00;64.10
18177;DHT22;9213;50.858;3.964;2022-12-20T09:10:23;14.00;64.10
18177;DHT22;9213;50.858;3.964;2022-12-20T09:12:50;14.00;64.10
18177;DHT22;9213;50.858;3.964;2022-12-20T09:15:18;14.00;64.10
18177;DHT22;9213;50.858;3.964;2022-12-20T09:17:45;14.10;64.30
18177;DHT22;9213;50.858;3.964;2022-12-20T09:20:13;14.10;64.30
18177;DHT22;9213;50.858;3.964;2022-12-20T09:22:40;14.10;64.30
18177;DHT22;9213;50.858;3.964;2022-12-20T09:25:07;14.10;64.20
18177;DHT22;9213;50.858;3.964;2022-12-20T09:27:34;14.10;64.10
18177;DHT22;9213;50.858;3.964;2022-12-20T09:30:02;14.10;64.10
18177;DHT22;9213;50.858;3.964;2022-12-20T09:32:31;14.20;64.10
18177;DHT22;9213;50.858;3.964;2022-12-20T09:34:58;14.20;64.10
18177;DHT22;9213;50.858;3.964;2022-12-20T09:37:25;14.20;64.10
18177;DHT22;9213;50.858;3.964;2022-12-20T09:39:51;14.20;64.10
18177;DHT22;9213;50.858;3.964;2022-12-20T09:42:21;14.20;64.10
18177;DHT22;9213;50.858;3.964;2022-12-20T09:44:50;14.20;64.20
18177;DHT22;9213;50.858;3.964;2022-12-20T09:47:19;14.20;64.20
18177;DHT22;9213;50.858;3.964;2022-12-20T09:49:51;14.20;64.30
18177;DHT22;9213;50.858;3.964;2022-12-20T09:52:39;14.20;64.40
18177;DHT22;9213;50.858;3.964;2022-12-20T09:55:18;14.20;64.40
18177;DHT22;9213;50.858;3.964;2022-12-20T09:57:59;14.20;64.30
18177;DHT22;9213;50.858;3.964;2022-12-20T10:00:34;14.20;64.50
18177;DHT22;9213;50.858;3.964;2022-12-20T10:03:01;14.20;64.40
18177;DHT22;9213;50.858;3.964;2022-12-20T10:05:34;14.10;64.50
18177;DHT22;9213;50.858;3.964;2022-12-20T10:08:08;14.20;64.60
18177;DHT22;9213;50.858;3.964;2022-12-20T10:10:50;14.20;64.50
18177;DHT22;9213;50.858;3.964;2022-12-20T10:13:29;14.20;64.50
18177;DHT22;9213;50.858;3.964;2022-12-20T10:16:02;14.30;64.50
18177;DHT22;9213;50.858;3.964;2022-12-20T10:18:41;14.30;64.50
18177;DHT22;9213;50.858;3.964;2022-12-20T10:21:18;14.30;64.60
18177;DHT22;9213;50.858;3.964;2022-12-20T10:23:53;14.30;64.50
18177;DHT22;9213;50.858;3.964;2022-12-20T10:26:22;14.30;64.40
18177;DHT22;9213;50.858;3.964;2022-12-20T10:28:49;14.30;64.40
18177;DHT22;9213;50.858;3.964;2022-12-20T10:31:17;14.30;64.50
18177;DHT22;9213;50.858;3.964;2022-12-20T10:33:44;14.40;64.50
18177;DHT22;9213;50.858;3.964;2022-12-20T10:36:21;14.40;64.60
18177;DHT22;9213;50.858;3.964;2022-12-20T10:38:51;14.40;64.70
18177;DHT22;9213;50.858;3.964;2022-12-20T10:41:19;14.40;64.70
18177;DHT22;9213;50.858;3.964;2022-12-20T10:43:48;14.40;64.80
18177;DHT22;9213;50.858;3.964;2022-12-20T10:46:18;14.40;64.90
18177;DHT22;9213;50.858;3.964;2022-12-20T10:48:46;14.40;64.90
18177;DHT22;9213;50.858;3.964;2022-12-20T10:51:17;14.40;65.00
18177;DHT22;9213;50.858;3.964;2022-12-20T10:53:55;14.40;65.00
18177;DHT22;9213;50.858;3.964;2022-12-20T10:56:23;14.50;65.10
18177;DHT22;9213;50.858;3.964;2022-12-20T10:58:56;14.40;64.90
18177;DHT22;9213;50.858;3.964;2022-12-20T11:01:27;14.50;65.30
18177;DHT22;9213;50.858;3.964;2022-12-20T11:03:58;14.50;65.30
18177;DHT22;9213;50.858;3.964;2022-12-20T11:06:38;14.50;65.20
18177;DHT22;9213;50.858;3.964;2022-12-20T11:09:22;14.50;65.20
18177;DHT22;9213;50.858;3.964;2022-12-20T11:12:06;14.60;65.20
18177;DHT22;9213;50.858;3.964;2022-12-20T11:14:35;14.60;65.10
18177;DHT22;9213;50.858;3.964;2022-12-20T11:17:05;14.50;65.10
18177;DHT22;9213;50.858;3.964;2022-12-20T11:19:53;14.50;65.10
18177;DHT22;9213;50.858;3.964;2022-12-20T11:22:32;14.60;65.20
18177;DHT22;9213;50.858;3.964;2022-12-20T11:25:16;14.60;65.10
18177;DHT22;9213;50.858;3.964;2022-12-20T11:27:54;14.60;65.00
18177;DHT22;9213;50.858;3.964;2022-12-20T11:30:32;14.60;65.00
18177;DHT22;9213;50.858;3.964;2022-12-20T11:33:18;14.60;65.00
18177;DHT22;9213;50.858;3.964;2022-12-20T11:35:56;14.60;65.00
18177;DHT22;9213;50.858;3.964;2022-12-20T11:38:38;14.60;64.70
18177;DHT22;9213;50.858;3.964;2022-12-20T11:41:17;14.60;64.90
18177;DHT22;9213;50.858;3.964;2022-12-20T11:44:03;14.60;64.90
18177;DHT22;9213;50.858;3.964;2022-12-20T11:46:41;14.60;64.90
18177;DHT22;9213;50.858;3.964;2022-12-20T11:49:49;14.60;65.00
18177;DHT22;9213;50.858;3.964;2022-12-20T11:52:25;14.60;65.10
18177;DHT22;9213;50.858;3.964;2022-12-20T11:55:01;14.60;64.90
18177;DHT22;9213;50.858;3.964;2022-12-20T11:57:35;14.60;65.00
18177;DHT22;9213;50.858;3.964;2022-12-20T12:00:12;14.60;65.10
18177;DHT22;9213;50.858;3.964;2022-12-20T12:02:43;14.60;65.10
18177;DHT22;9213;50.858;3.964;2022-12-20T12:05:17;14.50;65.20
18177;DHT22;9213;50.858;3.964;2022-12-20T12:07:49;14.60;65.20
18177;DHT22;9213;50.858;3.964;2022-12-20T12:10:21;14.50;65.20
18177;DHT22;9213;50.858;3.964;2022-12-20T12:12:57;14.50;65.20
18177;DHT22;9213;50.858;3.964;2022-12-20T12:15:30;14.60;65.30
18177;DHT22;9213;50.858;3.964;2022-12-20T12:18:04;14.50;65.20
18177;DHT22;9213;50.858;3.964;2022-12-20T12:20:44;14.50;66.10
18177;DHT22;9213;50.858;3.964;2022-12-20T12:23:18;14.50;65.40
18177;DHT22;9213;50.858;3.964;2022-12-20T12:25:48;14.50;65.40
18177;DHT22;9213;50.858;3.964;2022-12-20T12:28:18;14.50;65.30
18177;DHT22;9213;50.858;3.964;2022-12-20T12:30:50;14.50;65.40
18177;DHT22;9213;50.858;3.964;2022-12-20T12:33:23;14.50;65.30
18177;DHT22;9213;50.858;3.964;2022-12-20T12:36:10;14.50;65.30
18177;DHT22;9213;50.858;3.964;2022-12-20T12:39:12;14.50;65.40
18177;DHT22;9213;50.858;3.964;2022-12-20T12:44:50;14.50;65.30
18177;DHT22;9213;50.858;3.964;2022-12-20T12:47:20;14.40;65.00
18177;DHT22;9213;50.858;3.964;2022-12-20T12:49:50;14.40;65.20
18177;DHT22;9213;50.858;3.964;2022-12-20T12:52:28;14.30;65.30
18177;DHT22;9213;50.858;3.964;2022-12-20T12:55:00;14.40;65.40
18177;DHT22;9213;50.858;3.964;2022-12-20T12:57:27;14.40;65.20
18177;DHT22;9213;50.858;3.964;2022-12-20T12:59:55;14.40;65.30
18177;DHT22;9213;50.858;3.964;2022-12-20T13:02:34;14.30;65.30
18177;DHT22;9213;50.858;3.964;2022-12-20T13:05:29;14.30;65.30
18177;DHT22;9213;50.858;3.964;2022-12-20T13:07:56;14.40;65.40
18177;DHT22;9213;50.858;3.964;2022-12-20T13:13:31;14.40;65.60
18177;DHT22;9213;50.858;3.964;2022-12-20T13:16:26;14.30;65.40
18177;DHT22;9213;50.858;3.964;2022-12-20T13:19:10;14.40;65.70
18177;DHT22;9213;50.858;3.964;2022-12-20T13:21:39;14.40;65.80
18177;DHT22;9213;50.858;3.964;2022-12-20T13:24:38;14.30;65.70
18177;DHT22;9213;50.858;3.964;2022-12-20T13:27:34;14.40;65.90
18177;DHT22;9213;50.858;3.964;2022-12-20T13:30:25;14.40;65.80
18177;DHT22;9213;50.858;3.964;2022-12-20T13:33:02;14.40;65.80
18177;DHT22;9213;50.858;3.964;2022-12-20T13:38:49;14.40;65.70
18177;DHT22;9213;50.858;3.964;2022-12-20T13:41:34;14.40;65.80
18177;DHT22;9213;50.858;3.964;2022-12-20T13:44:18;14.40;65.70
18177;DHT22;9213;50.858;3.964;2022-12-20T13:46:52;14.40;65.70
18177;DHT22;9213;50.858;3.964;2022-12-20T13:49:24;14.40;65.70
18177;DHT22;9213;50.858;3.964;2022-12-20T13:54:49;14.40;65.80
18177;DHT22;9213;50.858;3.964;2022-12-20T13:57:21;14.40;65.50
18177;DHT22;9213;50.858;3.964;2022-12-20T13:59:52;14.40;65.50
18177;DHT22;9213;50.858;3.964;2022-12-20T14:02:22;14.40;65.60
18177;DHT22;9213;50.858;3.964;2022-12-20T14:04:56;14.40;65.50
18177;DHT22;9213;50.858;3.964;2022-12-20T14:07:25;14.50;65.70
18177;DHT22;9213;50.858;3.964;2022-12-20T14:09:58;14.40;65.50
18177;DHT22;9213;50.858;3.964;2022-12-20T14:12:26;14.40;65.60
18177;DHT22;9213;50.858;3.964;2022-12-20T14:14:53;14.40;65.50
18177;DHT22;9213;50.858;3.964;2022-12-20T14:17:24;14.40;65.50
18177;DHT22;9213;50.858;3.964;2022-12-20T14:20:23;14.40;65.50
18177;DHT22;9213;50.858;3.964;2022-12-20T14:22:55;14.50;65.70
18177;DHT22;9213;50.858;3.964;2022-12-20T14:25:31;14.40;65.40
18177;DHT22;9213;50.858;3.964;2022-12-20T14:27:59;14.50;65.60
18177;DHT22;9213;50.858;3.964;2022-12-20T14:30:32;14.40;65.40
18177;DHT22;9213;50.858;3.964;2022-12-20T14:33:00;14.50;65.60
18177;DHT22;9213;50.858;3.964;2022-12-20T14:35:28;14.40;65.40
18177;DHT22;9213;50.858;3.964;2022-12-20T14:37:58;14.50;65.60
18177;DHT22;9213;50.858;3.964;2022-12-20T14:40:27;14.40;65.50
18177;DHT22;9213;50.858;3.964;2022-12-20T14:42:55;14.50;65.70
18177;DHT22;9213;50.858;3.964;2022-12-20T14:45:24;14.40;65.50
18177;DHT22;9213;50.858;3.964;2022-12-20T14:47:57;14.40;65.50
18177;DHT22;9213;50.858;3.964;2022-12-20T14:50:29;14.50;65.70
18177;DHT22;9213;50.858;3.964;2022-12-20T14:52:57;14.50;65.60
18177;DHT22;9213;50.858;3.964;2022-12-20T14:55:29;14.40;65.50
18177;DHT22;9213;50.858;3.964;2022-12-20T14:57:57;14.50;65.70
18177;DHT22;9213;50.858;3.964;2022-12-20T15:00:25;14.40;65.60
18177;DHT22;9213;50.858;3.964;2022-12-20T15:03:00;14.40;65.60
18177;DHT22;9213;50.858;3.964;2022-12-20T15:05:48;14.50;65.70
18177;DHT22;9213;50.858;3.964;2022-12-20T15:08:18;14.50;65.80
18177;DHT22;9213;50.858;3.964;2022-12-20T15:10:51;14.40;65.60
18177;DHT22;9213;50.858;3.964;2022-12-20T15:13:20;14.40;65.70
18177;DHT22;9213;50.858;3.964;2022-12-20T15:15:47;14.40;65.70
18177;DHT22;9213;50.858;3.964;2022-12-20T15:18:16;14.40;65.70
18177;DHT22;9213;50.858;3.964;2022-12-20T15:20:45;14.40;65.70
18177;DHT22;9213;50.858;3.964;2022-12-20T15:23:16;14.40;65.70
18177;DHT22;9213;50.858;3.964;2022-12-20T15:25:44;14.40;65.70
18177;DHT22;9213;50.858;3.964;2022-12-20T15:28:14;14.40;65.60
18177;DHT22;9213;50.858;3.964;2022-12-20T15:30:41;14.40;65.60
18177;DHT22;9213;50.858;3.964;2022-12-20T15:33:14;14.40;65.50
18177;DHT22;9213;50.858;3.964;2022-12-20T15:35:42;14.50;65.70
18177;DHT22;9213;50.858;3.964;2022-12-20T15:38:13;14.40;65.50
18177;DHT22;9213;50.858;3.964;2022-12-20T15:40:44;14.40;65.70
18177;DHT22;9213;50.858;3.964;2022-12-20T15:43:15;14.40;65.60
18177;DHT22;9213;50.858;3.964;2022-12-20T15:45:44;14.40;65.80
18177;DHT22;9213;50.858;3.964;2022-12-20T15:48:14;14.40;65.70
18177;DHT22;9213;50.858;3.964;2022-12-20T15:50:43;14.40;65.80
18177;DHT22;9213;50.858;3.964;2022-12-20T15:53:13;14.40;65.70
18177;DHT22;9213;50.858;3.964;2022-12-20T15:55:41;14.40;65.70
18177;DHT22;9213;50.858;3.964;2022-12-20T15:58:09;14.40;65.60
18177;DHT22;9213;50.858;3.964;2022-12-20T16:00:38;14.40;65.70
18177;DHT22;9213;50.858;3.964;2022-12-20T16:03:13;14.50;65.80
18177;DHT22;9213;50.858;3.964;2022-12-20T16:05:40;14.50;65.90
18177;DHT22;9213;50.858;3.964;2022-12-20T16:08:07;14.40;65.70
18177;DHT22;9213;50.858;3.964;2022-12-20T16:10:34;14.40;65.70
18177;DHT22;9213;50.858;3.964;2022-12-20T16:13:01;14.40;65.70
18177;DHT22;9213;50.858;3.964;2022-12-20T16:15:30;14.50;65.80
18177;DHT22;9213;50.858;3.964;2022-12-20T16:17:57;14.50;65.80
18177;DHT22;9213;50.858;3.964;2022-12-20T16:20:24;14.50;65.60
18177;DHT22;9213;50.858;3.964;2022-12-20T16:22:52;14.40;65.50
18177;DHT22;9213;50.858;3.964;2022-12-20T16:25:27;14.40;65.50